首页
METAR-TAF:

METAR-TAF

机场 :

桑德贝, 安大略省, 加拿大

纬度: 48-22N, 经度: 089-19W, 海拔: 199米

当前天气观测

该预报发布于1小时和7分钟前的13:00 UTC
风速2节,风向西南
温度 14°C
湿度 94%
气压 1016 hPa
能見度: 32.2公里
少量云层高于6500英尺
多云层高于12000英尺
阴天层高于27000英尺

METAR: CYQT 221300Z 23002KT 20SM FEW065 BKN120 OVC270 14/13 A3001 RMK SC1AC5CI2 SLP168

时间: 10:07 (14:07 UTC)

预报

该预报发布于27分钟前的13:40 UTC
预报有效从22日的 14点(UTC)到 23日的 02点(UTC)
风速3节,风向多变
能見度: 10公里
散云层高于6000英尺
多云层高于12000英尺
从 22日的 1700点(UTC)
风速3节,风向多变
能見度: 10公里
多云层高于5000英尺
阴天层高于10000英尺
短暂存在
从 22日的 17点(UTC)到 22日的 20点(UTC)
能見度: 10公里
小阵雨
几率 30%
从 22日的 17点(UTC)到 22日的 20点(UTC)
能見度: 6.4公里
阴天层高于5000英尺, 积雨云.
雷暴, 雨, 轻雾
从 22日的 2000点(UTC)
风速8节,风向东转东北
能見度: 10公里
多云层高于5000英尺
阴天层高于8000英尺
短暂存在
从 22日的 20点(UTC)到 23日的 02点(UTC)
能見度: 10公里
阴天层高于5000英尺
小阵雨

TAF: CYQT 221340Z 2214/2302 VRB03KT P6SM SCT060 BKN120 FM221700 VRB03KT P6SM BKN050 OVC100 TEMPO 2217/2220 P6SM -SHRA PROB30 2217/2220 4SM TSRA BR OVC050CB FM222000 07008KT P6SM BKN050 OVC080 TEMPO 2220/2302 P6SM -SHRA OVC050 RMK NXT FCST BY 222000Z

超过4000个机场的气象观测和天气预报(METAR&TAF报告)。

可查询的气象台以黄色和红色小点在地图上表示。

将鼠标移到小点上方,可查看气象台名称。

然后点击查看天气观测和预报。

如需切换地图:点击带黑十字的绿色按钮放大地图;点击带横线的绿色按钮缩小地图;或者点击绿色箭头查看邻近地区的地图。


METAR-TAF: